This is the latest recevied weather packets stored in our database for station/object CE1JFB-10. If no packets are shown the sender has not sent any weather packets the latest 10 day(s).
| Time | Temp. | Humidity | Pressure | Rain* | Wind** | Luminosity | Snow |
|---|---|---|---|---|---|---|---|
| 1777431677 | 23.33° C | 53% | 1013.2 hPa | - | - | - | - |
| 1777428077 | 24.44° C | 52% | 1013.2 hPa | - | - | - | - |
| 1777424476 | 24.44° C | 53% | 1013.1 hPa | - | - | - | - |
| 1777420876 | 24.44° C | 52% | 1012.3 hPa | - | - | - | - |
| 1777417276 | 24.44° C | 52% | 1011.7 hPa | - | - | - | - |
| 1777413676 | 23.33° C | 56% | 1011.2 hPa | - | - | - | - |
| 1777410076 | 23.89° C | 53% | 1010.9 hPa | - | - | - | - |
| 1777406476 | 25° C | 49% | 1011 hPa | - | - | - | - |
| 1777402876 | 25° C | 49% | 1011.4 hPa | - | - | - | - |
| 1777399276 | 25.56° C | 50% | 1012 hPa | - | - | - | - |
| 1777395676 | 25.56° C | 49% | 1012.8 hPa | - | - | - | - |
| 1777392075 | 25° C | 50% | 1013.5 hPa | - | - | - | - |
| 1777388475 | 23.33° C | 54% | 1014.2 hPa | - | - | - | - |
| 1777383672 | 22.78° C | 55% | 1014.5 hPa | - | - | - | - |
| 1777380072 | 22.22° C | 57% | 1014.7 hPa | - | - | - | - |
| 1777372876 | 22.78° C | 57% | 1013.7 hPa | - | - | - | - |
| 1777369276 | 22.22° C | 57% | 1013.3 hPa | - | - | - | - |
| 1777365675 | 22.22° C | 58% | 1013.5 hPa | - | - | - | - |
| 1777362075 | 22.22° C | 57% | 1013.7 hPa | - | - | - | - |
| 1777358475 | 22.78° C | 58% | 1014.2 hPa | - | - | - | - |
| 1777354875 | 22.78° C | 57% | 1014.8 hPa | - | - | - | - |
| 1777351275 | 22.78° C | 56% | 1015.3 hPa | - | - | - | - |
* Rain since midnight (hover to see other rain measurements)
** Current wind speed in m/s (hover to see current wind gust speed)